createdAt,value
2017-10-03T00:00:37.785Z,1.70
2017-10-03T00:03:05.244Z,1.93
2017-10-03T00:05:32.699Z,1.80
2017-10-03T00:08:00.152Z,1.40
2017-10-03T00:10:27.621Z,1.60
2017-10-03T00:12:55.080Z,2.30
2017-10-03T00:15:22.525Z,1.30
2017-10-03T00:17:49.981Z,1.47
2017-10-03T00:20:17.426Z,1.33
2017-10-03T00:22:44.898Z,1.63
2017-10-03T00:25:12.361Z,1.40
2017-10-03T00:27:39.928Z,1.50
2017-10-03T00:30:07.369Z,1.63
2017-10-03T00:32:34.828Z,1.60
2017-10-03T00:35:02.290Z,1.40
2017-10-03T00:37:29.733Z,1.70
2017-10-03T00:39:57.202Z,2.00
2017-10-03T00:42:24.651Z,2.33
2017-10-03T00:44:52.225Z,2.00
2017-10-03T00:47:19.674Z,2.20
2017-10-03T00:49:47.132Z,2.10
2017-10-03T00:52:14.694Z,2.23
2017-10-03T00:54:42.157Z,2.60
2017-10-03T00:57:09.614Z,4.50
2017-10-03T00:59:37.073Z,4.87
2017-10-03T01:02:04.530Z,2.23
2017-10-03T01:04:31.993Z,4.40
2017-10-03T01:06:59.444Z,2.10
2017-10-03T01:09:26.906Z,2.77
2017-10-03T01:11:54.357Z,2.10
2017-10-03T01:14:21.813Z,2.40
2017-10-03T01:16:49.273Z,1.90
2017-10-03T01:19:16.725Z,2.60
2017-10-03T01:21:44.194Z,1.80
2017-10-03T01:24:12.453Z,1.60
2017-10-03T01:26:44.921Z,2.10
2017-10-03T01:29:12.401Z,2.10
2017-10-03T01:31:39.849Z,3.13
2017-10-03T01:34:07.302Z,2.80
2017-10-03T01:36:34.761Z,3.50
2017-10-03T01:39:02.222Z,2.10
2017-10-03T01:41:29.683Z,1.70
2017-10-03T01:43:57.128Z,1.60
2017-10-03T01:46:24.599Z,2.10
2017-10-03T01:48:52.145Z,1.83
2017-10-03T01:51:19.689Z,1.60
2017-10-03T01:53:47.145Z,1.53
2017-10-03T01:56:14.706Z,1.37
2017-10-03T01:58:42.167Z,1.60
2017-10-03T02:01:09.622Z,1.47
2017-10-03T02:03:37.082Z,1.23
2017-10-03T02:06:04.539Z,1.50
2017-10-03T02:08:32.753Z,1.50
2017-10-03T02:11:02.956Z,1.53
2017-10-03T02:13:31.177Z,1.20
2017-10-03T02:15:58.649Z,1.13
2017-10-03T02:18:26.101Z,1.40
2017-10-03T02:20:53.578Z,1.67
2017-10-03T02:23:21.025Z,1.10
2017-10-03T02:25:48.475Z,1.20
2017-10-03T02:28:15.943Z,0.90
2017-10-03T02:30:43.393Z,1.00
2017-10-03T02:33:11.768Z,1.10
2017-10-03T02:35:39.222Z,0.90
2017-10-03T02:38:06.686Z,0.90
2017-10-03T02:40:34.149Z,0.87
2017-10-03T02:43:01.606Z,0.90
2017-10-03T02:45:29.057Z,0.90
2017-10-03T02:47:56.512Z,1.10
2017-10-03T02:50:23.965Z,1.00
2017-10-03T02:52:51.417Z,0.90
2017-10-03T02:55:18.894Z,0.83
2017-10-03T02:57:46.445Z,0.83
2017-10-03T03:00:13.889Z,0.73
2017-10-03T03:02:41.361Z,0.80
2017-10-03T03:05:08.814Z,1.77
2017-10-03T03:07:36.286Z,1.00
2017-10-03T03:10:03.737Z,0.73
2017-10-03T03:12:31.291Z,0.90
2017-10-03T03:14:58.744Z,0.73
2017-10-03T03:17:26.309Z,0.90
2017-10-03T03:19:53.775Z,0.73
2017-10-03T03:22:21.234Z,0.60
2017-10-03T03:24:48.698Z,0.50
2017-10-03T03:27:16.155Z,0.50
2017-10-03T03:29:43.609Z,0.60
2017-10-03T03:32:11.057Z,0.50
2017-10-03T03:34:38.513Z,0.50
2017-10-03T03:37:05.964Z,0.43
2017-10-03T03:39:33.425Z,0.40
2017-10-03T03:42:00.873Z,0.70
2017-10-03T03:44:28.337Z,0.50
2017-10-03T03:46:55.790Z,0.50
2017-10-03T03:49:23.249Z,0.50
2017-10-03T03:51:53.433Z,0.50
2017-10-03T03:54:21.032Z,0.60
2017-10-03T03:56:48.486Z,0.60
2017-10-03T03:59:15.946Z,0.60
2017-10-03T04:01:43.488Z,0.60
2017-10-03T04:04:10.952Z,0.50
2017-10-03T04:06:38.410Z,0.77
2017-10-03T04:09:05.866Z,0.70
2017-10-03T04:11:33.829Z,0.70
2017-10-03T04:14:02.302Z,0.73
2017-10-03T04:16:29.759Z,0.70
2017-10-03T04:18:57.222Z,0.70
2017-10-03T04:21:24.677Z,0.63
2017-10-03T04:23:52.124Z,0.80
2017-10-03T04:26:19.582Z,0.70
2017-10-03T04:28:47.037Z,0.83
2017-10-03T04:31:16.699Z,0.93
2017-10-03T04:33:44.945Z,0.77
2017-10-03T04:36:12.420Z,1.10
2017-10-03T04:38:40.642Z,0.70
2017-10-03T04:41:08.101Z,0.80
2017-10-03T04:43:35.557Z,0.90
2017-10-03T04:46:03.017Z,0.70
2017-10-03T04:48:30.477Z,0.90
2017-10-03T04:50:57.933Z,0.70
2017-10-03T04:53:25.412Z,0.90
2017-10-03T04:55:52.865Z,0.70
2017-10-03T04:58:20.349Z,0.90
2017-10-03T05:00:47.772Z,0.80
2017-10-03T05:03:15.233Z,0.83
2017-10-03T05:05:42.682Z,1.10
2017-10-03T05:08:10.154Z,1.07
2017-10-03T05:10:37.610Z,1.10
2017-10-03T05:13:05.170Z,1.37
2017-10-03T05:15:32.732Z,0.83
2017-10-03T05:18:00.201Z,1.10
2017-10-03T05:20:27.737Z,0.93
2017-10-03T05:22:55.212Z,0.90
2017-10-03T05:25:22.750Z,1.37
2017-10-03T05:27:50.222Z,1.10
2017-10-03T05:30:23.368Z,0.97
2017-10-03T05:32:50.927Z,2.63
2017-10-03T05:35:18.368Z,1.63
2017-10-03T05:37:45.814Z,1.50
2017-10-03T05:40:17.137Z,1.63
2017-10-03T05:42:44.590Z,1.50
2017-10-03T05:45:12.041Z,1.60
2017-10-03T05:47:39.494Z,2.20
2017-10-03T05:50:06.957Z,2.33
2017-10-03T05:52:34.407Z,2.00
2017-10-03T05:55:01.869Z,3.40
2017-10-03T05:57:29.431Z,3.00
2017-10-03T05:59:56.968Z,4.47
2017-10-03T06:02:24.424Z,4.40
2017-10-03T06:04:51.989Z,4.85
2017-10-03T06:07:19.453Z,5.13
2017-10-03T06:09:46.922Z,4.40
2017-10-03T06:12:14.370Z,5.33
2017-10-03T06:14:44.397Z,3.28
2017-10-03T06:17:12.014Z,4.30
2017-10-03T06:19:39.460Z,3.00
2017-10-03T06:22:06.924Z,2.10
2017-10-03T06:24:34.374Z,2.40
2017-10-03T06:27:01.905Z,1.83
2017-10-03T06:29:29.365Z,2.20
2017-10-03T06:31:56.824Z,1.67
2017-10-03T06:34:24.273Z,1.70
2017-10-03T06:36:52.494Z,2.00
2017-10-03T06:39:19.965Z,1.20
2017-10-03T06:41:47.426Z,1.60
2017-10-03T06:44:16.595Z,1.13
2017-10-03T06:46:44.045Z,1.33
2017-10-03T06:49:11.508Z,1.60
2017-10-03T06:51:39.263Z,1.40
2017-10-03T06:54:07.755Z,2.00
2017-10-03T06:56:35.894Z,1.53
2017-10-03T07:01:36.678Z,1.10
2017-10-03T07:04:04.874Z,1.20
2017-10-03T07:06:32.329Z,1.20
2017-10-03T07:08:59.774Z,1.17
2017-10-03T07:11:27.253Z,2.60
2017-10-03T07:13:54.712Z,1.20
2017-10-03T07:16:22.253Z,1.30
2017-10-03T07:18:49.722Z,1.57
2017-10-03T07:21:19.765Z,0.90
2017-10-03T07:23:47.213Z,1.10
2017-10-03T07:26:14.829Z,1.07
2017-10-03T07:28:43.015Z,1.40
2017-10-03T07:31:10.465Z,1.00
2017-10-03T07:33:37.930Z,1.10
2017-10-03T07:36:05.379Z,1.83
2017-10-03T07:38:32.845Z,1.30
2017-10-03T07:41:00.409Z,1.47
2017-10-03T07:43:27.878Z,1.63
2017-10-03T07:45:55.330Z,1.30
2017-10-03T07:48:24.304Z,1.20
2017-10-03T07:50:51.753Z,1.20
2017-10-03T07:53:19.237Z,1.00
2017-10-03T07:55:48.193Z,1.10
2017-10-03T07:58:15.781Z,1.40
2017-10-03T08:00:43.233Z,1.10
2017-10-03T08:03:10.796Z,1.00
2017-10-03T08:05:38.259Z,1.10
2017-10-03T08:08:05.714Z,1.00
2017-10-03T08:10:33.185Z,0.80
2017-10-03T08:13:00.630Z,0.93
2017-10-03T08:15:28.096Z,1.10
2017-10-03T08:17:56.306Z,1.30
2017-10-03T08:20:23.771Z,1.63
2017-10-03T08:22:51.216Z,1.00
2017-10-03T08:25:18.680Z,1.00
2017-10-03T08:27:46.121Z,0.90
2017-10-03T08:30:14.341Z,0.83
2017-10-03T08:32:41.803Z,1.10
2017-10-03T08:35:09.257Z,1.00
2017-10-03T08:37:36.702Z,0.80
2017-10-03T08:40:04.161Z,0.70
2017-10-03T08:42:31.629Z,1.10
2017-10-03T08:44:59.113Z,0.93
2017-10-03T08:47:26.561Z,0.60
2017-10-03T08:49:54.022Z,0.90
2017-10-03T08:52:21.481Z,0.80
2017-10-03T08:54:48.936Z,0.90
2017-10-03T08:57:16.402Z,0.90
2017-10-03T08:59:44.625Z,0.80
2017-10-03T09:02:12.089Z,0.90
2017-10-03T09:04:39.538Z,1.10
2017-10-03T09:07:07.001Z,1.00
2017-10-03T09:09:34.463Z,1.00
2017-10-03T09:12:01.925Z,0.97
2017-10-03T09:14:29.382Z,0.90
2017-10-03T09:16:56.846Z,1.20
2017-10-03T09:19:24.292Z,1.30
2017-10-03T09:21:51.750Z,1.50
2017-10-03T09:24:19.207Z,1.27
2017-10-03T09:26:46.684Z,1.50
2017-10-03T09:29:14.138Z,1.40
2017-10-03T09:31:41.600Z,2.13
2017-10-03T09:34:09.059Z,1.43
2017-10-03T09:36:37.335Z,1.80
2017-10-03T09:39:05.541Z,1.47
2017-10-03T09:41:33.059Z,2.10
2017-10-03T09:44:01.273Z,1.67
2017-10-03T09:46:28.734Z,1.70
2017-10-03T09:48:56.202Z,1.40
2017-10-03T09:51:23.695Z,1.40
2017-10-03T09:53:51.249Z,1.70
2017-10-03T09:56:18.694Z,1.30
2017-10-03T09:58:46.169Z,2.33
2017-10-03T10:01:13.626Z,1.93
2017-10-03T10:03:41.094Z,1.60
2017-10-03T10:06:09.375Z,1.60
2017-10-03T10:08:36.830Z,1.90
2017-10-03T10:11:04.277Z,2.07
2017-10-03T10:13:32.703Z,1.27
2017-10-03T10:16:00.149Z,1.43
2017-10-03T10:18:27.661Z,1.10
2017-10-03T10:20:55.118Z,1.77
2017-10-03T10:23:22.570Z,1.70
2017-10-03T10:25:50.030Z,1.60
2017-10-03T10:28:17.481Z,1.30
2017-10-03T10:30:45.399Z,1.63
2017-10-03T10:33:14.286Z,1.40
2017-10-03T10:35:42.513Z,1.40
2017-10-03T10:38:09.967Z,1.27
2017-10-03T10:40:37.431Z,2.23
2017-10-03T10:43:04.995Z,1.50
2017-10-03T10:45:32.458Z,1.40
2017-10-03T10:47:59.901Z,1.87
2017-10-03T10:50:27.357Z,1.30
2017-10-03T10:52:54.812Z,1.50
2017-10-03T10:55:22.265Z,2.10
2017-10-03T10:57:49.718Z,1.73
2017-10-03T11:00:17.176Z,4.57
2017-10-03T11:02:44.622Z,3.13
2017-10-03T11:05:12.093Z,1.60
2017-10-03T11:07:39.549Z,1.70
2017-10-03T11:10:07.017Z,1.70
2017-10-03T11:12:34.473Z,1.40
2017-10-03T11:15:02.029Z,1.97
2017-10-03T11:17:29.501Z,1.50
2017-10-03T11:19:56.948Z,2.60
2017-10-03T11:22:24.409Z,1.47
2017-10-03T11:24:51.858Z,1.73
2017-10-03T11:27:19.339Z,1.43
2017-10-03T11:29:46.775Z,1.90
2017-10-03T11:32:14.233Z,1.50
2017-10-03T11:34:41.677Z,1.87
2017-10-03T11:37:10.060Z,1.37
2017-10-03T11:39:37.670Z,1.90
2017-10-03T11:42:09.214Z,1.40
2017-10-03T11:44:37.434Z,2.10
2017-10-03T11:47:04.910Z,1.90
2017-10-03T11:49:32.465Z,1.63
2017-10-03T11:51:59.925Z,1.50
2017-10-03T11:54:32.409Z,1.80
2017-10-03T11:56:59.855Z,1.57
2017-10-03T11:59:27.318Z,1.17
2017-10-03T12:01:54.762Z,2.37
2017-10-03T12:04:22.217Z,3.60
2017-10-03T12:06:49.784Z,2.40
2017-10-03T12:09:17.337Z,2.50
2017-10-03T12:11:44.796Z,1.90
2017-10-03T12:14:12.255Z,1.77
2017-10-03T12:16:39.718Z,1.60
2017-10-03T12:19:08.681Z,1.70
2017-10-03T12:21:36.128Z,1.60
2017-10-03T12:24:03.616Z,1.90
2017-10-03T12:26:31.066Z,1.57
2017-10-03T12:28:58.522Z,1.20
2017-10-03T12:31:25.964Z,1.50
2017-10-03T12:33:53.429Z,1.70
2017-10-03T12:36:20.870Z,2.27
2017-10-03T12:38:48.469Z,1.63
2017-10-03T12:41:15.922Z,1.50
2017-10-03T12:43:43.361Z,1.80
2017-10-03T12:46:10.921Z,1.80
2017-10-03T12:48:38.381Z,1.70
2017-10-03T12:51:05.946Z,1.90
2017-10-03T12:53:33.398Z,1.90
2017-10-03T12:56:00.958Z,1.63
2017-10-03T12:58:28.405Z,1.50
2017-10-03T13:00:55.870Z,2.00
2017-10-03T13:03:23.319Z,2.70
2017-10-03T13:05:50.775Z,1.77
2017-10-03T13:08:18.233Z,2.33
2017-10-03T13:10:45.694Z,1.50
2017-10-03T13:13:13.140Z,1.70
2017-10-03T13:15:40.621Z,1.97
2017-10-03T13:18:08.060Z,1.83
2017-10-03T13:20:35.631Z,2.00
2017-10-03T13:23:03.073Z,1.60
2017-10-03T13:25:30.529Z,1.90
2017-10-03T13:27:57.990Z,2.27
2017-10-03T13:30:25.548Z,1.80
2017-10-03T13:32:53.109Z,1.77
2017-10-03T13:35:20.580Z,1.47
2017-10-03T13:37:48.034Z,2.07
2017-10-03T13:40:15.481Z,1.70
2017-10-03T13:42:43.052Z,1.57
2017-10-03T13:45:10.498Z,1.97
2017-10-03T13:47:37.957Z,1.50
2017-10-03T13:50:05.515Z,1.70
2017-10-03T13:52:33.073Z,1.60
2017-10-03T13:55:00.521Z,1.57
2017-10-03T13:57:27.978Z,1.50
2017-10-03T13:59:55.438Z,1.30
2017-10-03T14:02:22.897Z,1.40
2017-10-03T14:04:50.353Z,1.37
2017-10-03T14:07:17.815Z,1.30
2017-10-03T14:09:45.265Z,1.30
2017-10-03T14:12:12.721Z,1.47
2017-10-03T14:14:40.282Z,1.37
2017-10-03T14:17:07.743Z,1.30
2017-10-03T14:19:35.206Z,1.40
2017-10-03T14:22:03.442Z,1.37
2017-10-03T14:24:30.899Z,1.33
2017-10-03T14:26:58.357Z,1.60
2017-10-03T14:29:25.816Z,1.30
2017-10-03T14:31:53.310Z,1.77
2017-10-03T14:34:20.773Z,1.20
2017-10-03T14:36:48.313Z,2.20
2017-10-03T14:39:15.775Z,1.27
2017-10-03T14:41:43.230Z,1.27
2017-10-03T14:44:10.691Z,1.40
2017-10-03T14:46:38.141Z,1.37
2017-10-03T14:49:05.696Z,1.20
2017-10-03T14:51:33.148Z,1.27
2017-10-03T14:54:00.709Z,1.47
2017-10-03T14:56:28.161Z,1.20
2017-10-03T14:58:55.614Z,1.90
2017-10-03T15:01:23.058Z,1.27
2017-10-03T15:03:50.546Z,1.20
2017-10-03T15:06:18.000Z,1.40
2017-10-03T15:08:45.461Z,1.30
2017-10-03T15:11:12.919Z,1.50
2017-10-03T15:13:40.377Z,1.20
2017-10-03T15:16:07.834Z,1.40
2017-10-03T15:18:35.290Z,1.60
2017-10-03T15:21:02.752Z,1.53
2017-10-03T15:23:30.297Z,1.30
2017-10-03T15:25:57.750Z,1.30
2017-10-03T15:28:25.208Z,1.30
2017-10-03T15:30:52.673Z,2.57
2017-10-03T15:33:20.129Z,1.80
2017-10-03T15:35:47.586Z,2.07
2017-10-03T15:38:15.048Z,2.57
2017-10-03T15:40:42.503Z,1.90
2017-10-03T15:43:09.957Z,1.80
2017-10-03T15:45:37.413Z,2.50
2017-10-03T15:48:04.873Z,1.70
2017-10-03T15:50:32.332Z,1.53
2017-10-03T15:52:59.870Z,1.70
2017-10-03T15:55:27.455Z,1.67
2017-10-03T15:57:54.901Z,1.90
2017-10-03T16:00:22.346Z,1.50
2017-10-03T16:02:50.585Z,1.53
2017-10-03T16:05:18.055Z,1.90
2017-10-03T16:07:45.883Z,1.20
2017-10-03T16:10:14.123Z,1.60
2017-10-03T16:12:41.578Z,1.40
2017-10-03T16:15:09.030Z,2.17
2017-10-03T16:17:36.558Z,1.20
2017-10-03T16:20:04.020Z,1.90
2017-10-03T16:22:31.546Z,2.00
2017-10-03T16:25:00.274Z,1.90
2017-10-03T16:27:27.732Z,1.80
2017-10-03T16:29:55.239Z,3.97
2017-10-03T16:32:23.502Z,3.70
2017-10-03T16:34:51.058Z,1.90
2017-10-03T16:37:18.505Z,1.40
2017-10-03T16:39:46.778Z,2.00
2017-10-03T16:42:14.384Z,1.90
2017-10-03T16:44:42.717Z,2.30
2017-10-03T16:47:10.174Z,1.90
2017-10-03T16:49:37.633Z,3.40
2017-10-03T16:52:05.089Z,3.30
2017-10-03T16:54:32.562Z,4.00
2017-10-03T16:57:00.795Z,2.10
2017-10-03T16:59:28.255Z,1.57
2017-10-03T17:01:55.709Z,1.50
2017-10-03T17:04:23.220Z,2.00
2017-10-03T17:06:51.428Z,2.07
2017-10-03T17:09:18.889Z,5.50
2017-10-03T17:11:46.374Z,1.80
2017-10-03T17:14:13.922Z,1.63
2017-10-03T17:16:41.364Z,1.63
2017-10-03T17:19:08.853Z,1.60
2017-10-03T17:21:36.614Z,1.70
2017-10-03T17:24:04.094Z,2.03
2017-10-03T17:26:39.341Z,3.43
2017-10-03T17:29:08.221Z,1.60
2017-10-03T17:31:36.532Z,2.53
2017-10-03T17:34:04.089Z,1.60
2017-10-03T17:36:31.613Z,2.20
2017-10-03T17:38:59.154Z,2.57
2017-10-03T17:41:27.182Z,2.13
2017-10-03T17:43:54.700Z,1.87
2017-10-03T17:46:22.923Z,1.90
2017-10-03T17:48:50.391Z,2.00
2017-10-03T17:51:17.967Z,2.00
2017-10-03T17:53:45.416Z,1.80
2017-10-03T17:56:12.980Z,2.10
2017-10-03T17:58:40.429Z,1.77
2017-10-03T18:01:07.886Z,2.07
2017-10-03T18:03:35.474Z,2.83
2017-10-03T18:06:02.939Z,2.50
2017-10-03T18:08:31.165Z,2.00
2017-10-03T18:10:58.622Z,2.90
2017-10-03T18:13:26.066Z,3.00
2017-10-03T18:15:53.522Z,1.97
2017-10-03T18:18:20.988Z,2.53
2017-10-03T18:20:48.438Z,2.10
2017-10-03T18:23:15.904Z,2.10
2017-10-03T18:25:43.350Z,2.00
2017-10-03T18:28:10.814Z,1.60
2017-10-03T18:30:38.257Z,2.70
2017-10-03T18:33:05.741Z,2.60
2017-10-03T18:35:33.201Z,2.10
2017-10-03T18:38:00.760Z,2.20
2017-10-03T18:40:28.990Z,2.10
2017-10-03T18:42:56.441Z,2.67
2017-10-03T18:45:23.895Z,2.20
2017-10-03T18:47:51.350Z,2.87
2017-10-03T18:50:18.798Z,2.83
2017-10-03T18:52:47.043Z,1.93
2017-10-03T18:55:14.497Z,2.90
2017-10-03T18:57:41.963Z,2.77
2017-10-03T19:00:11.834Z,1.77
2017-10-03T19:02:39.290Z,2.67
2017-10-03T19:05:06.753Z,3.28
2017-10-03T19:07:34.228Z,2.07
2017-10-03T19:10:01.798Z,1.77
2017-10-03T19:12:29.250Z,2.33
2017-10-03T19:14:56.721Z,2.30
2017-10-03T19:17:24.174Z,2.50
2017-10-03T19:19:51.624Z,1.90
2017-10-03T19:22:20.114Z,2.53
2017-10-03T19:24:47.566Z,3.70
2017-10-03T19:27:15.023Z,2.80
2017-10-03T19:29:42.482Z,3.53
2017-10-03T19:32:09.930Z,2.77
2017-10-03T19:34:37.393Z,3.87
2017-10-03T19:37:04.846Z,4.60
2017-10-03T19:39:32.309Z,3.62
2017-10-03T19:42:00.539Z,2.67
2017-10-03T19:44:28.071Z,3.83
2017-10-03T19:46:56.291Z,3.23
2017-10-03T19:49:23.748Z,4.20
2017-10-03T19:51:51.224Z,3.17
2017-10-03T19:54:20.192Z,3.90
2017-10-03T19:56:47.658Z,2.60
2017-10-03T19:59:15.101Z,4.37
2017-10-03T20:01:42.567Z,3.53
2017-10-03T20:04:12.026Z,4.43
2017-10-03T20:06:39.558Z,3.70
2017-10-03T20:09:07.009Z,4.50
2017-10-03T20:11:34.474Z,4.43
2017-10-03T20:14:02.699Z,3.53
2017-10-03T20:16:30.156Z,4.25
2017-10-03T20:18:57.644Z,4.03
2017-10-03T20:21:25.098Z,4.20
2017-10-03T20:23:52.562Z,4.37
2017-10-03T20:26:20.006Z,4.07
2017-10-03T20:28:51.677Z,3.62
2017-10-03T20:31:19.185Z,4.82
2017-10-03T20:33:46.690Z,4.95
2017-10-03T20:36:14.149Z,4.22
2017-10-03T20:38:41.605Z,3.70
2017-10-03T20:41:09.063Z,4.30
2017-10-03T20:43:36.521Z,5.20
2017-10-03T20:46:04.781Z,5.25
2017-10-03T20:48:32.263Z,5.87
2017-10-03T20:51:00.485Z,5.78
2017-10-03T20:53:27.944Z,6.37
2017-10-03T20:55:55.447Z,4.97
2017-10-03T20:58:22.987Z,5.57
2017-10-03T21:00:50.449Z,6.28
2017-10-03T21:03:17.901Z,5.10
2017-10-03T21:05:46.173Z,6.12
2017-10-03T21:08:13.641Z,6.10
2017-10-03T21:10:41.111Z,5.72
2017-10-03T21:13:09.328Z,6.22
2017-10-03T21:15:36.793Z,4.47
2017-10-03T21:18:04.259Z,5.47
2017-10-03T21:20:31.717Z,5.47
2017-10-03T21:22:59.176Z,7.18
2017-10-03T21:25:26.748Z,5.78
2017-10-03T21:27:54.207Z,5.80
2017-10-03T21:30:24.881Z,4.72
2017-10-03T21:32:52.333Z,5.85
2017-10-03T21:35:20.577Z,5.12
2017-10-03T21:37:48.046Z,5.15
2017-10-03T21:40:16.265Z,8.15
2017-10-03T21:42:55.653Z,5.72
2017-10-03T21:45:23.132Z,6.03
2017-10-03T21:47:51.345Z,4.85
2017-10-03T21:50:18.814Z,6.30
2017-10-03T21:52:46.384Z,5.68
2017-10-03T21:55:13.836Z,5.60
2017-10-03T21:57:41.302Z,5.90
2017-10-03T22:02:36.020Z,6.20
2017-10-03T22:05:03.479Z,6.25
2017-10-03T22:07:30.934Z,4.75
2017-10-03T22:09:59.163Z,4.95
2017-10-03T22:12:26.621Z,6.87
2017-10-03T22:14:54.076Z,5.43
2017-10-03T22:17:21.534Z,5.00
2017-10-03T22:19:49.033Z,5.53
2017-10-03T22:22:16.490Z,5.43
2017-10-03T22:24:44.718Z,6.18
2017-10-03T22:27:12.182Z,5.55
2017-10-03T22:29:39.642Z,5.28
2017-10-03T22:32:07.125Z,5.20
2017-10-03T22:34:34.599Z,5.87
2017-10-03T22:37:02.078Z,4.68
2017-10-03T22:39:29.535Z,5.37
2017-10-03T22:41:57.754Z,5.10
2017-10-03T22:44:25.217Z,6.87
2017-10-03T22:46:54.462Z,5.83
2017-10-03T22:49:27.638Z,5.07
2017-10-03T22:52:01.573Z,6.57
2017-10-03T22:54:29.044Z,6.03
2017-10-03T22:56:57.071Z,5.80
2017-10-03T22:59:25.297Z,5.00
2017-10-03T23:01:52.750Z,6.25
2017-10-03T23:04:20.214Z,6.57
2017-10-03T23:06:49.254Z,8.68
2017-10-03T23:09:16.719Z,5.18
2017-10-03T23:11:44.939Z,5.75
2017-10-03T23:14:12.406Z,6.68
2017-10-03T23:16:39.857Z,6.22
2017-10-03T23:19:07.428Z,5.55
2017-10-03T23:21:34.886Z,5.20
2017-10-03T23:24:02.345Z,5.87
2017-10-03T23:26:29.801Z,5.65
2017-10-03T23:28:57.261Z,5.50
2017-10-03T23:31:24.821Z,5.90
2017-10-03T23:33:52.278Z,5.90
2017-10-03T23:36:19.729Z,6.00
2017-10-03T23:38:47.177Z,5.10
2017-10-03T23:41:14.633Z,5.27
2017-10-03T23:43:42.091Z,5.18
2017-10-03T23:46:09.565Z,5.55
2017-10-03T23:48:37.015Z,5.43
2017-10-03T23:51:04.469Z,5.32
2017-10-03T23:53:31.926Z,5.70
2017-10-03T23:55:59.381Z,6.25
2017-10-03T23:58:26.829Z,4.90
